createdAt,value
2018-10-02T00:02:55.860Z,2.00
2018-10-02T00:07:50.717Z,2.00
2018-10-02T00:12:50.545Z,1.80
2018-10-02T00:17:49.357Z,2.10
2018-10-02T00:22:44.178Z,2.00
2018-10-02T00:27:38.981Z,1.50
2018-10-02T00:32:33.930Z,1.90
2018-10-02T00:37:28.820Z,1.73
2018-10-02T00:42:23.646Z,2.10
2018-10-02T00:47:18.442Z,1.83
2018-10-02T00:52:13.258Z,2.20
2018-10-02T00:57:08.146Z,2.10
2018-10-02T01:02:02.950Z,2.17
2018-10-02T01:06:57.757Z,2.10
2018-10-02T01:11:52.595Z,2.50
2018-10-02T01:16:47.392Z,2.63
2018-10-02T01:21:42.167Z,3.00
2018-10-02T01:26:36.961Z,2.37
2018-10-02T01:31:31.736Z,3.00
2018-10-02T01:36:26.470Z,2.70
2018-10-02T01:41:21.415Z,2.53
2018-10-02T01:46:16.374Z,2.67
2018-10-02T01:51:11.178Z,2.70
2018-10-02T01:56:05.990Z,2.23
2018-10-02T02:01:00.825Z,2.50
2018-10-02T02:05:55.643Z,2.37
2018-10-02T02:10:50.500Z,2.33
2018-10-02T02:15:45.301Z,2.27
2018-10-02T02:20:40.131Z,2.40
2018-10-02T02:25:34.953Z,2.73
2018-10-02T02:30:29.843Z,2.70
2018-10-02T02:35:24.642Z,2.43
2018-10-02T02:40:19.436Z,2.20
2018-10-02T02:45:14.291Z,2.43
2018-10-02T02:50:14.299Z,2.30
2018-10-02T02:55:09.105Z,2.20
2018-10-02T03:00:04.148Z,2.57
2018-10-02T03:04:58.950Z,2.33
2018-10-02T03:09:53.785Z,2.03
2018-10-02T03:14:48.694Z,2.00
2018-10-02T03:19:43.493Z,1.87
2018-10-02T03:24:38.316Z,2.13
2018-10-02T03:29:33.133Z,2.40
2018-10-02T03:34:27.929Z,2.17
2018-10-02T03:39:22.825Z,2.30
2018-10-02T03:44:17.802Z,2.43
2018-10-02T03:49:12.590Z,1.90
2018-10-02T03:54:07.642Z,2.20
2018-10-02T03:59:02.781Z,1.90
2018-10-02T04:03:57.738Z,1.93
2018-10-02T04:08:52.511Z,1.80
2018-10-02T04:13:47.862Z,2.13
2018-10-02T04:18:42.715Z,2.20
2018-10-02T04:23:37.494Z,2.23
2018-10-02T04:28:32.319Z,1.87
2018-10-02T04:33:27.108Z,2.43
2018-10-02T04:38:21.887Z,2.17
2018-10-02T04:43:16.706Z,2.50
2018-10-02T04:48:11.491Z,2.30
2018-10-02T04:53:07.030Z,2.40
2018-10-02T04:58:01.825Z,2.10
2018-10-02T05:02:56.645Z,1.93
2018-10-02T05:07:51.470Z,2.23
2018-10-02T05:12:46.925Z,2.53
2018-10-02T05:17:41.696Z,2.50
2018-10-02T05:22:36.504Z,1.90
2018-10-02T05:27:31.296Z,2.33
2018-10-02T05:32:26.954Z,2.33
2018-10-02T05:37:21.749Z,2.90
2018-10-02T05:42:16.605Z,2.63
2018-10-02T05:47:11.462Z,2.77
2018-10-02T05:52:06.228Z,2.40
2018-10-02T05:57:01.099Z,2.40
2018-10-02T06:01:56.245Z,2.37
2018-10-02T06:06:51.065Z,2.50
2018-10-02T06:11:45.889Z,2.50
2018-10-02T06:16:41.231Z,3.13
2018-10-02T06:21:36.062Z,2.27
2018-10-02T06:26:30.910Z,2.10
2018-10-02T06:31:25.962Z,2.47
2018-10-02T06:36:20.785Z,2.93
2018-10-02T06:41:15.621Z,3.07
2018-10-02T06:46:10.729Z,2.80
2018-10-02T06:51:06.431Z,2.70
2018-10-02T06:56:01.189Z,2.63
2018-10-02T07:00:55.979Z,2.73
2018-10-02T07:05:50.760Z,2.70
2018-10-02T07:10:45.553Z,2.57
2018-10-02T07:15:40.300Z,2.67
2018-10-02T07:20:35.634Z,2.70
2018-10-02T07:25:30.557Z,2.40
2018-10-02T07:30:25.466Z,2.43
2018-10-02T07:35:20.314Z,2.40
2018-10-02T07:40:15.109Z,2.30
2018-10-02T07:45:10.002Z,2.37
2018-10-02T07:50:04.897Z,2.80
2018-10-02T07:54:59.692Z,2.60
2018-10-02T07:59:54.586Z,2.20
2018-10-02T08:04:49.623Z,2.80
2018-10-02T08:09:44.600Z,2.83
2018-10-02T08:14:39.431Z,2.60
2018-10-02T08:19:34.349Z,2.60
2018-10-02T08:24:29.166Z,3.17
2018-10-02T08:29:24.047Z,2.97
2018-10-02T08:34:18.920Z,4.37
2018-10-02T08:39:13.747Z,3.70
2018-10-02T08:44:08.657Z,3.70
2018-10-02T08:49:03.521Z,3.67
2018-10-02T08:53:58.394Z,3.97
2018-10-02T08:58:53.186Z,4.33
2018-10-02T09:03:48.028Z,3.93
2018-10-02T09:08:42.910Z,3.70
2018-10-02T09:13:37.732Z,3.30
2018-10-02T09:18:33.019Z,3.53
2018-10-02T09:23:27.813Z,3.60
2018-10-02T09:28:23.464Z,3.90
2018-10-02T09:33:24.597Z,3.63
2018-10-02T09:38:25.234Z,3.50
2018-10-02T09:43:21.965Z,3.73
2018-10-02T09:48:16.705Z,3.10
2018-10-02T09:53:11.543Z,2.43
2018-10-02T09:58:06.458Z,2.33
2018-10-02T10:03:01.357Z,2.50
2018-10-02T10:07:56.347Z,2.63
2018-10-02T10:12:51.522Z,2.30
2018-10-02T10:17:46.325Z,2.63
2018-10-02T10:22:41.187Z,3.10
2018-10-02T10:27:36.049Z,2.80
2018-10-02T10:32:30.916Z,2.57
2018-10-02T10:37:25.698Z,2.93
2018-10-02T10:42:20.529Z,2.27
2018-10-02T10:47:15.458Z,2.30
2018-10-02T10:52:10.314Z,2.33
2018-10-02T10:57:05.125Z,2.40
2018-10-02T11:01:59.883Z,2.33
2018-10-02T11:06:54.728Z,2.73
2018-10-02T11:11:49.564Z,2.60
2018-10-02T11:16:44.365Z,2.20
2018-10-02T11:21:39.279Z,2.17
2018-10-02T11:26:34.082Z,2.23
2018-10-02T11:31:28.990Z,1.80
2018-10-02T11:36:23.802Z,1.80
2018-10-02T11:41:19.543Z,1.77
2018-10-02T11:46:14.425Z,1.90
2018-10-02T11:51:09.245Z,1.97
2018-10-02T11:56:04.112Z,1.80
2018-10-02T12:00:59.038Z,2.00
2018-10-02T12:05:53.799Z,1.40
2018-10-02T12:10:48.589Z,2.10
2018-10-02T12:15:44.267Z,1.87
2018-10-02T12:20:39.090Z,1.80
2018-10-02T12:25:33.961Z,1.83
2018-10-02T12:30:28.757Z,2.33
2018-10-02T12:35:23.550Z,2.30
2018-10-02T12:40:18.366Z,2.23
2018-10-02T12:45:13.174Z,2.07
2018-10-02T12:50:08.048Z,1.93
2018-10-02T12:55:02.850Z,2.10
2018-10-02T12:59:57.673Z,2.13
2018-10-02T13:04:52.430Z,2.07
2018-10-02T13:09:47.255Z,1.77
2018-10-02T13:14:43.857Z,2.17
2018-10-02T13:19:40.791Z,2.20
2018-10-02T13:24:35.750Z,1.57
2018-10-02T13:29:30.561Z,1.90
2018-10-02T13:34:25.562Z,2.07
2018-10-02T13:39:20.358Z,2.00
2018-10-02T13:44:15.294Z,2.33
2018-10-02T13:49:10.162Z,2.30
2018-10-02T13:54:04.967Z,2.33
2018-10-02T13:58:59.832Z,2.03
2018-10-02T14:03:54.660Z,1.90
2018-10-02T14:08:49.495Z,2.40
2018-10-02T14:13:44.322Z,2.30
2018-10-02T14:18:39.122Z,2.00
2018-10-02T14:23:34.345Z,2.23
2018-10-02T14:28:29.235Z,2.20
2018-10-02T14:33:24.059Z,2.17
2018-10-02T14:38:18.867Z,1.97
2018-10-02T14:43:14.658Z,2.20
2018-10-02T14:48:09.534Z,2.30
2018-10-02T14:53:04.407Z,2.13
2018-10-02T14:57:59.210Z,1.87
2018-10-02T15:02:54.058Z,2.07
2018-10-02T15:07:48.854Z,1.80
2018-10-02T15:12:43.706Z,1.70
2018-10-02T15:17:40.111Z,1.70
2018-10-02T15:22:35.358Z,2.27
2018-10-02T15:27:30.204Z,2.40
2018-10-02T15:32:25.011Z,1.80
2018-10-02T15:37:19.840Z,2.13
2018-10-02T15:42:14.673Z,2.30
2018-10-02T15:47:10.602Z,2.20
2018-10-02T15:52:05.473Z,2.50
2018-10-02T15:57:00.276Z,2.30
2018-10-02T16:01:55.078Z,2.40
2018-10-02T16:06:49.962Z,2.30
2018-10-02T16:11:45.019Z,2.00
2018-10-02T16:16:39.794Z,2.20
2018-10-02T16:21:34.631Z,2.50
2018-10-02T16:26:29.505Z,2.30
2018-10-02T16:31:24.325Z,2.03
2018-10-02T16:36:19.380Z,2.03
2018-10-02T16:41:14.489Z,2.10
2018-10-02T16:46:09.332Z,1.83
2018-10-02T16:51:04.193Z,2.00
2018-10-02T16:55:59.006Z,1.90
2018-10-02T17:00:53.973Z,1.90
2018-10-02T17:05:50.227Z,1.87
2018-10-02T17:10:46.023Z,2.10
2018-10-02T17:15:41.287Z,1.70
2018-10-02T17:20:36.157Z,1.57
2018-10-02T17:25:30.975Z,1.27
2018-10-02T17:30:26.031Z,1.70
2018-10-02T17:35:20.928Z,1.23
2018-10-02T17:40:15.830Z,1.43
2018-10-02T17:45:10.699Z,1.63
2018-10-02T17:50:05.615Z,1.23
2018-10-02T17:55:00.540Z,1.13
2018-10-02T17:59:55.473Z,1.13
2018-10-02T18:04:50.325Z,1.20
2018-10-02T18:09:45.130Z,1.30
2018-10-02T18:14:39.961Z,1.20
2018-10-02T18:19:34.819Z,1.03
2018-10-02T18:24:29.707Z,1.50
2018-10-02T18:29:24.538Z,1.47
2018-10-02T18:34:19.432Z,1.00
2018-10-02T18:39:15.296Z,1.03
2018-10-02T18:44:11.249Z,0.90
2018-10-02T18:49:06.357Z,1.20
2018-10-02T18:54:01.251Z,1.20
2018-10-02T18:58:56.363Z,1.20
2018-10-02T19:03:51.256Z,1.17
2018-10-02T19:08:51.373Z,1.10
2018-10-02T19:13:46.514Z,1.10
2018-10-02T19:18:41.615Z,1.57
2018-10-02T19:23:36.749Z,1.03
2018-10-02T19:28:33.205Z,0.83
2018-10-02T19:33:28.818Z,1.20
2018-10-02T19:38:30.244Z,1.50
2018-10-02T19:43:25.321Z,1.13
2018-10-02T19:48:20.776Z,1.00
2018-10-02T19:53:15.640Z,1.53
2018-10-02T19:58:11.469Z,1.00
2018-10-02T20:03:09.270Z,1.07
2018-10-02T20:08:04.965Z,1.13
2018-10-02T20:12:59.811Z,1.10
2018-10-02T20:17:54.642Z,1.30
2018-10-02T20:22:49.636Z,1.10
2018-10-02T20:27:44.557Z,0.83
2018-10-02T20:32:39.406Z,1.27
2018-10-02T20:37:34.331Z,1.53
2018-10-02T20:42:29.234Z,1.40
2018-10-02T20:47:24.299Z,1.10
2018-10-02T20:52:19.182Z,1.20
2018-10-02T20:57:14.378Z,1.50
2018-10-02T21:02:09.273Z,1.20
2018-10-02T21:07:05.222Z,1.37
2018-10-02T21:12:00.953Z,1.27
2018-10-02T21:16:56.631Z,1.70
2018-10-02T21:21:51.615Z,1.43
2018-10-02T21:26:46.485Z,1.27
2018-10-02T21:31:42.405Z,1.57
2018-10-02T21:36:37.282Z,1.30
2018-10-02T21:41:32.752Z,1.50
2018-10-02T21:46:27.842Z,1.50
2018-10-02T21:51:25.356Z,1.30
2018-10-02T21:56:20.186Z,1.47
2018-10-02T22:01:15.335Z,1.30
2018-10-02T22:06:10.163Z,1.40
2018-10-02T22:11:05.109Z,1.90
2018-10-02T22:16:00.306Z,1.60
2018-10-02T22:20:55.170Z,1.70
2018-10-02T22:25:49.958Z,1.73
2018-10-02T22:30:44.814Z,1.53
2018-10-02T22:35:39.749Z,1.60
2018-10-02T22:40:34.564Z,1.63
2018-10-02T22:45:29.402Z,1.60
2018-10-02T22:50:24.210Z,1.70
2018-10-02T22:55:19.229Z,1.63
2018-10-02T23:00:14.062Z,1.60
2018-10-02T23:05:08.938Z,1.83
2018-10-02T23:10:03.893Z,1.63
2018-10-02T23:14:58.689Z,1.80
2018-10-02T23:19:53.487Z,1.60
2018-10-02T23:24:48.307Z,1.73
2018-10-02T23:29:43.110Z,1.80
2018-10-02T23:34:37.935Z,1.67
2018-10-02T23:39:33.060Z,1.90
2018-10-02T23:44:27.932Z,1.60
2018-10-02T23:49:22.710Z,1.27
2018-10-02T23:54:17.569Z,1.60
2018-10-02T23:59:12.434Z,1.40
